sensor_id;sensor_type;location;lat;lon;timestamp;P1;P2;P0
75960;PMS7003;64644;48.914;2.254;2023-10-08T00:00:42;57.50;46.50;31.75
75960;PMS7003;64644;48.914;2.254;2023-10-08T00:03:14;52.00;43.75;30.75
75960;PMS7003;64644;48.914;2.254;2023-10-08T00:05:40;45.50;38.25;24.00
75960;PMS7003;64644;48.914;2.254;2023-10-08T00:08:06;50.00;40.00;25.75
75960;PMS7003;64644;48.914;2.254;2023-10-08T00:10:36;48.25;41.75;29.25
75960;PMS7003;64644;48.914;2.254;2023-10-08T00:13:04;49.75;41.50;28.50
75960;PMS7003;64644;48.914;2.254;2023-10-08T00:15:33;42.75;38.75;27.00
75960;PMS7003;64644;48.914;2.254;2023-10-08T00:18:01;49.25;39.50;25.50
75960;PMS7003;64644;48.914;2.254;2023-10-08T00:20:31;45.75;38.50;27.75
75960;PMS7003;64644;48.914;2.254;2023-10-08T00:23:07;49.00;39.75;28.50
75960;PMS7003;64644;48.914;2.254;2023-10-08T00:25:34;51.50;41.75;29.00
75960;PMS7003;64644;48.914;2.254;2023-10-08T00:28:06;49.50;41.50;27.00
75960;PMS7003;64644;48.914;2.254;2023-10-08T00:30:39;48.00;41.00;26.25
75960;PMS7003;64644;48.914;2.254;2023-10-08T00:33:06;47.75;40.50;26.75
75960;PMS7003;64644;48.914;2.254;2023-10-08T00:35:36;50.75;44.00;29.75
75960;PMS7003;64644;48.914;2.254;2023-10-08T00:38:06;48.75;41.50;29.00
75960;PMS7003;64644;48.914;2.254;2023-10-08T00:40:40;54.25;43.25;28.25
75960;PMS7003;64644;48.914;2.254;2023-10-08T00:43:10;48.50;41.50;28.00
75960;PMS7003;64644;48.914;2.254;2023-10-08T00:46:01;15.75;13.25;0.00
75960;PMS7003;64644;48.914;2.254;2023-10-08T00:48:28;54.50;43.00;29.00
75960;PMS7003;64644;48.914;2.254;2023-10-08T00:51:01;55.50;44.25;29.50
75960;PMS7003;64644;48.914;2.254;2023-10-08T00:53:46;55.50;45.25;30.50
75960;PMS7003;64644;48.914;2.254;2023-10-08T00:56:17;51.25;43.50;30.25
75960;PMS7003;64644;48.914;2.254;2023-10-08T00:58:44;53.75;42.50;29.00
75960;PMS7003;64644;48.914;2.254;2023-10-08T01:01:18;53.25;43.50;30.00
75960;PMS7003;64644;48.914;2.254;2023-10-08T01:03:46;52.50;43.75;30.00
75960;PMS7003;64644;48.914;2.254;2023-10-08T01:06:12;52.50;43.75;29.25
75960;PMS7003;64644;48.914;2.254;2023-10-08T01:08:37;56.25;45.75;31.00
75960;PMS7003;64644;48.914;2.254;2023-10-08T01:11:17;52.75;44.00;30.50
75960;PMS7003;64644;48.914;2.254;2023-10-08T01:14:04;54.50;45.00;29.75
75960;PMS7003;64644;48.914;2.254;2023-10-08T01:16:32;54.25;45.50;29.75
75960;PMS7003;64644;48.914;2.254;2023-10-08T01:18:59;53.00;44.25;29.50
75960;PMS7003;64644;48.914;2.254;2023-10-08T01:21:27;53.75;43.00;28.25
75960;PMS7003;64644;48.914;2.254;2023-10-08T01:24:02;56.50;45.50;30.75
75960;PMS7003;64644;48.914;2.254;2023-10-08T01:26:31;51.50;44.00;30.00
75960;PMS7003;64644;48.914;2.254;2023-10-08T01:29:04;55.25;44.75;29.25
75960;PMS7003;64644;48.914;2.254;2023-10-08T01:31:31;54.75;44.75;30.00
75960;PMS7003;64644;48.914;2.254;2023-10-08T01:33:57;47.75;41.75;30.00
75960;PMS7003;64644;48.914;2.254;2023-10-08T01:36:24;52.00;43.75;30.75
75960;PMS7003;64644;48.914;2.254;2023-10-08T01:38:50;49.00;40.00;29.00
75960;PMS7003;64644;48.914;2.254;2023-10-08T01:41:16;51.50;43.75;28.50
75960;PMS7003;64644;48.914;2.254;2023-10-08T01:43:46;46.25;41.00;26.00
75960;PMS7003;64644;48.914;2.254;2023-10-08T01:46:12;45.00;37.25;28.50
75960;PMS7003;64644;48.914;2.254;2023-10-08T01:48:38;50.00;42.25;29.00
75960;PMS7003;64644;48.914;2.254;2023-10-08T01:51:04;46.25;38.75;25.25
75960;PMS7003;64644;48.914;2.254;2023-10-08T01:53:36;39.75;36.75;24.50
75960;PMS7003;64644;48.914;2.254;2023-10-08T01:56:03;40.50;37.00;26.00
75960;PMS7003;64644;48.914;2.254;2023-10-08T01:58:29;41.00;36.75;25.00
75960;PMS7003;64644;48.914;2.254;2023-10-08T02:00:55;39.25;34.00;24.50
75960;PMS7003;64644;48.914;2.254;2023-10-08T02:03:25;45.50;36.50;24.25
75960;PMS7003;64644;48.914;2.254;2023-10-08T02:05:52;39.25;36.25;24.75
75960;PMS7003;64644;48.914;2.254;2023-10-08T02:08:18;42.75;35.25;25.00
75960;PMS7003;64644;48.914;2.254;2023-10-08T02:10:44;35.25;33.75;23.75
75960;PMS7003;64644;48.914;2.254;2023-10-08T02:13:12;43.75;38.50;25.25
75960;PMS7003;64644;48.914;2.254;2023-10-08T02:15:48;39.25;35.50;24.50
75960;PMS7003;64644;48.914;2.254;2023-10-08T02:18:18;41.50;37.50;24.75
75960;PMS7003;64644;48.914;2.254;2023-10-08T02:20:44;26.75;24.00;20.25
75960;PMS7003;64644;48.914;2.254;2023-10-08T02:23:10;36.50;34.75;24.00
75960;PMS7003;64644;48.914;2.254;2023-10-08T02:25:38;38.25;35.00;23.00
75960;PMS7003;64644;48.914;2.254;2023-10-08T02:28:05;33.00;31.00;21.25
75960;PMS7003;64644;48.914;2.254;2023-10-08T02:30:33;30.50;29.75;21.75
75960;PMS7003;64644;48.914;2.254;2023-10-08T02:32:59;37.25;34.25;22.00
75960;PMS7003;64644;48.914;2.254;2023-10-08T02:35:25;29.00;29.00;21.50
75960;PMS7003;64644;48.914;2.254;2023-10-08T02:37:50;29.00;27.25;18.50
75960;PMS7003;64644;48.914;2.254;2023-10-08T02:40:17;30.75;28.50;22.00
75960;PMS7003;64644;48.914;2.254;2023-10-08T02:42:51;30.50;28.75;19.25
75960;PMS7003;64644;48.914;2.254;2023-10-08T02:45:23;33.00;29.00;20.50
75960;PMS7003;64644;48.914;2.254;2023-10-08T02:47:51;23.25;23.25;18.25
75960;PMS7003;64644;48.914;2.254;2023-10-08T02:50:18;28.25;27.50;20.00
75960;PMS7003;64644;48.914;2.254;2023-10-08T02:52:44;31.00;29.00;18.00
75960;PMS7003;64644;48.914;2.254;2023-10-08T02:55:09;29.50;26.50;18.00
75960;PMS7003;64644;48.914;2.254;2023-10-08T02:57:48;24.75;24.25;17.50
75960;PMS7003;64644;48.914;2.254;2023-10-08T03:00:15;28.25;25.75;17.75
75960;PMS7003;64644;48.914;2.254;2023-10-08T03:02:41;24.75;22.75;15.50
75960;PMS7003;64644;48.914;2.254;2023-10-08T03:05:06;29.75;27.50;20.50
75960;PMS7003;64644;48.914;2.254;2023-10-08T03:07:33;28.00;23.00;18.25
75960;PMS7003;64644;48.914;2.254;2023-10-08T03:10:00;29.00;26.75;18.75
75960;PMS7003;64644;48.914;2.254;2023-10-08T03:12:31;26.75;22.50;19.00
75960;PMS7003;64644;48.914;2.254;2023-10-08T03:15:00;27.75;26.25;20.00
75960;PMS7003;64644;48.914;2.254;2023-10-08T03:17:44;28.00;27.25;19.50
75960;PMS7003;64644;48.914;2.254;2023-10-08T03:20:18;24.50;24.50;19.25
75960;PMS7003;64644;48.914;2.254;2023-10-08T03:22:54;27.75;27.00;17.25
75960;PMS7003;64644;48.914;2.254;2023-10-08T03:25:22;29.75;25.50;19.00
75960;PMS7003;64644;48.914;2.254;2023-10-08T03:27:49;27.00;24.75;17.75
75960;PMS7003;64644;48.914;2.254;2023-10-08T03:30:14;26.50;21.50;18.25
75960;PMS7003;64644;48.914;2.254;2023-10-08T03:32:40;19.00;19.00;14.25
75960;PMS7003;64644;48.914;2.254;2023-10-08T03:35:21;23.75;23.75;18.00
75960;PMS7003;64644;48.914;2.254;2023-10-08T03:37:53;27.75;21.00;14.00
75960;PMS7003;64644;48.914;2.254;2023-10-08T03:40:19;25.50;24.50;16.00
75960;PMS7003;64644;48.914;2.254;2023-10-08T03:42:56;30.00;28.25;19.75
75960;PMS7003;64644;48.914;2.254;2023-10-08T03:45:22;26.50;24.50;17.00
75960;PMS7003;64644;48.914;2.254;2023-10-08T03:48:06;22.25;21.75;16.00
75960;PMS7003;64644;48.914;2.254;2023-10-08T03:50:35;31.50;26.00;19.00
75960;PMS7003;64644;48.914;2.254;2023-10-08T03:53:08;27.00;26.50;19.25
75960;PMS7003;64644;48.914;2.254;2023-10-08T03:55:39;24.75;23.25;18.25
75960;PMS7003;64644;48.914;2.254;2023-10-08T03:58:06;28.25;26.75;18.75
75960;PMS7003;64644;48.914;2.254;2023-10-08T04:00:36;29.50;24.00;18.00
75960;PMS7003;64644;48.914;2.254;2023-10-08T04:03:06;30.00;25.75;17.75
75960;PMS7003;64644;48.914;2.254;2023-10-08T04:05:36;25.00;24.25;18.50
75960;PMS7003;64644;48.914;2.254;2023-10-08T04:08:21;28.75;27.00;18.50
75960;PMS7003;64644;48.914;2.254;2023-10-08T04:11:05;31.50;28.00;20.75
75960;PMS7003;64644;48.914;2.254;2023-10-08T04:13:33;32.50;27.25;19.25
75960;PMS7003;64644;48.914;2.254;2023-10-08T04:16:00;31.50;29.50;22.75
75960;PMS7003;64644;48.914;2.254;2023-10-08T04:18:26;31.00;26.25;19.25
75960;PMS7003;64644;48.914;2.254;2023-10-08T04:20:52;27.50;26.50;19.25
75960;PMS7003;64644;48.914;2.254;2023-10-08T04:23:29;30.50;28.25;19.00
75960;PMS7003;64644;48.914;2.254;2023-10-08T04:25:55;24.00;24.00;17.75
75960;PMS7003;64644;48.914;2.254;2023-10-08T04:28:22;26.25;25.25;17.75
75960;PMS7003;64644;48.914;2.254;2023-10-08T04:30:51;27.75;24.25;17.75
75960;PMS7003;64644;48.914;2.254;2023-10-08T04:33:17;31.25;26.50;19.00
75960;PMS7003;64644;48.914;2.254;2023-10-08T04:35:44;27.75;27.00;19.25
75960;PMS7003;64644;48.914;2.254;2023-10-08T04:38:17;30.25;25.75;18.00
75960;PMS7003;64644;48.914;2.254;2023-10-08T04:40:53;31.00;28.75;18.50
75960;PMS7003;64644;48.914;2.254;2023-10-08T04:43:20;25.75;25.25;19.25
75960;PMS7003;64644;48.914;2.254;2023-10-08T04:45:56;26.00;25.25;18.25
75960;PMS7003;64644;48.914;2.254;2023-10-08T04:48:23;29.75;26.25;19.50
75960;PMS7003;64644;48.914;2.254;2023-10-08T04:50:56;26.75;26.75;18.75
75960;PMS7003;64644;48.914;2.254;2023-10-08T04:53:29;25.75;24.75;17.75
75960;PMS7003;64644;48.914;2.254;2023-10-08T04:56:06;26.75;26.75;19.50
75960;PMS7003;64644;48.914;2.254;2023-10-08T04:58:38;32.00;28.75;19.50
75960;PMS7003;64644;48.914;2.254;2023-10-08T05:01:06;33.25;27.50;20.00
75960;PMS7003;64644;48.914;2.254;2023-10-08T05:03:51;29.00;26.50;20.75
75960;PMS7003;64644;48.914;2.254;2023-10-08T05:06:27;28.50;26.25;19.25
75960;PMS7003;64644;48.914;2.254;2023-10-08T05:09:05;23.50;21.25;16.00
75960;PMS7003;64644;48.914;2.254;2023-10-08T05:11:36;26.50;26.50;20.25
75960;PMS7003;64644;48.914;2.254;2023-10-08T05:14:11;32.25;27.75;20.75
75960;PMS7003;64644;48.914;2.254;2023-10-08T05:16:56;29.25;26.25;19.00
75960;PMS7003;64644;48.914;2.254;2023-10-08T05:19:40;32.75;31.25;21.25
75960;PMS7003;64644;48.914;2.254;2023-10-08T05:22:09;29.50;29.50;20.00
75960;PMS7003;64644;48.914;2.254;2023-10-08T05:24:48;28.50;26.00;20.75
75960;PMS7003;64644;48.914;2.254;2023-10-08T05:27:40;27.75;26.75;19.50
75960;PMS7003;64644;48.914;2.254;2023-10-08T05:30:12;35.00;33.50;22.00
75960;PMS7003;64644;48.914;2.254;2023-10-08T05:32:50;30.75;29.00;19.25
75960;PMS7003;64644;48.914;2.254;2023-10-08T05:35:39;32.00;27.75;19.25
75960;PMS7003;64644;48.914;2.254;2023-10-08T05:38:06;28.00;26.25;18.75
75960;PMS7003;64644;48.914;2.254;2023-10-08T05:41:00;28.25;26.25;19.50
75960;PMS7003;64644;48.914;2.254;2023-10-08T05:43:35;29.75;29.00;20.75
75960;PMS7003;64644;48.914;2.254;2023-10-08T05:46:04;29.00;27.25;21.25
75960;PMS7003;64644;48.914;2.254;2023-10-08T05:48:51;31.50;28.25;20.75
75960;PMS7003;64644;48.914;2.254;2023-10-08T05:51:44;30.00;28.00;20.75
75960;PMS7003;64644;48.914;2.254;2023-10-08T05:54:13;30.25;27.75;18.75
75960;PMS7003;64644;48.914;2.254;2023-10-08T05:56:55;30.50;25.50;19.00
75960;PMS7003;64644;48.914;2.254;2023-10-08T05:59:50;31.75;31.25;21.00
75960;PMS7003;64644;48.914;2.254;2023-10-08T06:02:22;25.50;23.75;17.75
75960;PMS7003;64644;48.914;2.254;2023-10-08T06:05:12;24.00;22.00;18.75
75960;PMS7003;64644;48.914;2.254;2023-10-08T06:10:18;25.50;25.00;18.25
75960;PMS7003;64644;48.914;2.254;2023-10-08T06:13:00;23.25;22.75;17.50
75960;PMS7003;64644;48.914;2.254;2023-10-08T06:18:20;32.25;29.00;22.00
75960;PMS7003;64644;48.914;2.254;2023-10-08T06:20:50;28.25;27.00;19.75
75960;PMS7003;64644;48.914;2.254;2023-10-08T06:23:26;29.50;27.75;20.75
75960;PMS7003;64644;48.914;2.254;2023-10-08T06:25:54;33.00;30.00;20.50
75960;PMS7003;64644;48.914;2.254;2023-10-08T06:28:43;30.00;24.75;20.25
75960;PMS7003;64644;48.914;2.254;2023-10-08T06:31:09;30.25;29.25;19.25
75960;PMS7003;64644;48.914;2.254;2023-10-08T06:33:41;25.75;25.75;18.00
75960;PMS7003;64644;48.914;2.254;2023-10-08T06:36:08;32.75;29.75;21.75
75960;PMS7003;64644;48.914;2.254;2023-10-08T06:38:36;31.00;30.25;21.50
75960;PMS7003;64644;48.914;2.254;2023-10-08T06:41:04;34.00;30.25;21.00
75960;PMS7003;64644;48.914;2.254;2023-10-08T06:43:39;30.00;28.75;20.75
75960;PMS7003;64644;48.914;2.254;2023-10-08T06:46:10;26.50;24.50;18.00
75960;PMS7003;64644;48.914;2.254;2023-10-08T06:48:37;24.75;24.75;19.00
75960;PMS7003;64644;48.914;2.254;2023-10-08T06:51:07;25.50;24.50;17.00
75960;PMS7003;64644;48.914;2.254;2023-10-08T06:53:37;24.75;21.75;13.25
75960;PMS7003;64644;48.914;2.254;2023-10-08T06:56:10;22.00;19.25;14.00
75960;PMS7003;64644;48.914;2.254;2023-10-08T06:58:37;29.75;22.75;16.75
75960;PMS7003;64644;48.914;2.254;2023-10-08T07:01:03;19.25;18.25;15.25
75960;PMS7003;64644;48.914;2.254;2023-10-08T07:03:33;23.75;21.75;15.50
75960;PMS7003;64644;48.914;2.254;2023-10-08T07:06:00;27.00;25.00;18.25
75960;PMS7003;64644;48.914;2.254;2023-10-08T07:08:31;23.00;20.75;15.50
75960;PMS7003;64644;48.914;2.254;2023-10-08T07:10:58;25.25;24.25;16.50
75960;PMS7003;64644;48.914;2.254;2023-10-08T07:13:26;19.75;19.75;16.00
75960;PMS7003;64644;48.914;2.254;2023-10-08T07:15:54;24.25;21.00;15.25
75960;PMS7003;64644;48.914;2.254;2023-10-08T07:18:20;19.50;19.50;16.00
75960;PMS7003;64644;48.914;2.254;2023-10-08T07:20:50;27.00;25.75;17.00
75960;PMS7003;64644;48.914;2.254;2023-10-08T07:23:18;24.50;22.50;15.75
75960;PMS7003;64644;48.914;2.254;2023-10-08T07:25:57;22.75;22.75;17.00
75960;PMS7003;64644;48.914;2.254;2023-10-08T07:28:39;23.75;23.75;16.75
75960;PMS7003;64644;48.914;2.254;2023-10-08T07:31:41;23.75;22.25;17.00
75960;PMS7003;64644;48.914;2.254;2023-10-08T07:34:01;21.00;18.25;15.25
75960;PMS7003;64644;48.914;2.254;2023-10-08T07:36:41;21.50;19.75;16.25
75960;PMS7003;64644;48.914;2.254;2023-10-08T07:39:07;21.75;21.75;16.00
75960;PMS7003;64644;48.914;2.254;2023-10-08T07:41:34;23.50;22.50;16.00
75960;PMS7003;64644;48.914;2.254;2023-10-08T07:44:00;23.25;21.00;16.00
75960;PMS7003;64644;48.914;2.254;2023-10-08T07:46:25;28.25;26.00;18.25
75960;PMS7003;64644;48.914;2.254;2023-10-08T07:48:54;24.25;23.75;16.00
75960;PMS7003;64644;48.914;2.254;2023-10-08T07:51:20;26.50;25.50;18.50
75960;PMS7003;64644;48.914;2.254;2023-10-08T07:53:52;25.00;23.00;17.25
75960;PMS7003;64644;48.914;2.254;2023-10-08T07:56:24;28.00;24.25;16.50
75960;PMS7003;64644;48.914;2.254;2023-10-08T07:58:50;27.25;26.50;19.00
75960;PMS7003;64644;48.914;2.254;2023-10-08T08:01:22;26.75;25.25;19.75
75960;PMS7003;64644;48.914;2.254;2023-10-08T08:03:50;27.75;26.75;18.50
75960;PMS7003;64644;48.914;2.254;2023-10-08T08:06:16;37.00;33.50;21.25
75960;PMS7003;64644;48.914;2.254;2023-10-08T08:08:41;30.50;30.50;20.50
75960;PMS7003;64644;48.914;2.254;2023-10-08T08:11:09;34.25;30.75;22.75
75960;PMS7003;64644;48.914;2.254;2023-10-08T08:13:38;32.25;31.75;21.50
75960;PMS7003;64644;48.914;2.254;2023-10-08T08:16:04;28.75;28.75;20.50
75960;PMS7003;64644;48.914;2.254;2023-10-08T08:18:50;31.00;28.50;20.25
75960;PMS7003;64644;48.914;2.254;2023-10-08T08:21:20;33.00;33.00;21.75
75960;PMS7003;64644;48.914;2.254;2023-10-08T08:23:48;33.00;33.00;21.25
75960;PMS7003;64644;48.914;2.254;2023-10-08T08:26:24;29.25;29.25;20.25
75960;PMS7003;64644;48.914;2.254;2023-10-08T08:28:55;35.75;32.00;22.25
75960;PMS7003;64644;48.914;2.254;2023-10-08T08:31:23;34.50;32.50;21.00
75960;PMS7003;64644;48.914;2.254;2023-10-08T08:33:50;37.00;32.25;23.75
75960;PMS7003;64644;48.914;2.254;2023-10-08T08:36:19;33.00;30.25;21.00
75960;PMS7003;64644;48.914;2.254;2023-10-08T08:38:45;36.75;34.00;23.00
75960;PMS7003;64644;48.914;2.254;2023-10-08T08:41:12;38.50;33.75;23.00
75960;PMS7003;64644;48.914;2.254;2023-10-08T08:43:38;34.50;33.75;22.00
75960;PMS7003;64644;48.914;2.254;2023-10-08T08:46:09;31.00;30.00;21.25
75960;PMS7003;64644;48.914;2.254;2023-10-08T08:48:38;38.25;34.75;21.75
75960;PMS7003;64644;48.914;2.254;2023-10-08T08:51:09;35.00;31.75;22.75
75960;PMS7003;64644;48.914;2.254;2023-10-08T08:53:37;33.25;30.50;22.00
75960;PMS7003;64644;48.914;2.254;2023-10-08T08:56:05;33.00;32.00;20.75
75960;PMS7003;64644;48.914;2.254;2023-10-08T08:58:33;31.75;27.50;18.25
75960;PMS7003;64644;48.914;2.254;2023-10-08T09:00:58;28.50;27.75;22.00
75960;PMS7003;64644;48.914;2.254;2023-10-08T09:03:25;28.75;28.75;20.75
75960;PMS7003;64644;48.914;2.254;2023-10-08T09:05:56;29.75;29.00;19.25
75960;PMS7003;64644;48.914;2.254;2023-10-08T09:08:22;30.75;29.25;22.00
75960;PMS7003;64644;48.914;2.254;2023-10-08T09:10:49;30.00;29.75;19.75
75960;PMS7003;64644;48.914;2.254;2023-10-08T09:13:22;27.75;27.75;19.50
75960;PMS7003;64644;48.914;2.254;2023-10-08T09:15:50;28.25;28.25;20.00
75960;PMS7003;64644;48.914;2.254;2023-10-08T09:18:16;26.75;23.00;18.75
75960;PMS7003;64644;48.914;2.254;2023-10-08T09:20:42;29.50;27.00;20.25
75960;PMS7003;64644;48.914;2.254;2023-10-08T09:23:12;28.25;24.75;17.25
75960;PMS7003;64644;48.914;2.254;2023-10-08T09:25:43;38.75;31.75;21.00
75960;PMS7003;64644;48.914;2.254;2023-10-08T09:28:09;29.75;29.75;22.00
75960;PMS7003;64644;48.914;2.254;2023-10-08T09:30:38;30.00;29.00;18.75
75960;PMS7003;64644;48.914;2.254;2023-10-08T09:33:05;31.50;29.00;21.25
75960;PMS7003;64644;48.914;2.254;2023-10-08T09:35:31;32.50;28.75;22.00
75960;PMS7003;64644;48.914;2.254;2023-10-08T09:37:58;30.50;28.75;19.25
75960;PMS7003;64644;48.914;2.254;2023-10-08T09:40:23;26.00;24.50;21.00
75960;PMS7003;64644;48.914;2.254;2023-10-08T09:42:50;28.25;26.50;19.00
75960;PMS7003;64644;48.914;2.254;2023-10-08T09:45:17;26.50;25.00;18.00
75960;PMS7003;64644;48.914;2.254;2023-10-08T09:47:45;28.00;27.50;18.00
75960;PMS7003;64644;48.914;2.254;2023-10-08T09:50:16;32.75;30.00;21.25
75960;PMS7003;64644;48.914;2.254;2023-10-08T09:55:33;22.00;21.75;15.75
75960;PMS7003;64644;48.914;2.254;2023-10-08T09:57:58;28.00;26.50;16.00
75960;PMS7003;64644;48.914;2.254;2023-10-08T10:00:24;26.00;23.00;16.00
75960;PMS7003;64644;48.914;2.254;2023-10-08T10:02:57;23.75;22.75;16.00
75960;PMS7003;64644;48.914;2.254;2023-10-08T10:05:27;20.00;17.25;13.75
75960;PMS7003;64644;48.914;2.254;2023-10-08T10:07:55;21.00;21.00;14.75
75960;PMS7003;64644;48.914;2.254;2023-10-08T10:10:28;23.75;23.00;14.00
75960;PMS7003;64644;48.914;2.254;2023-10-08T10:13:00;24.00;20.00;14.75
75960;PMS7003;64644;48.914;2.254;2023-10-08T10:15:27;17.00;17.00;12.00
75960;PMS7003;64644;48.914;2.254;2023-10-08T10:17:58;16.25;15.50;11.75
75960;PMS7003;64644;48.914;2.254;2023-10-08T10:20:32;16.75;16.75;12.00
75960;PMS7003;64644;48.914;2.254;2023-10-08T10:22:59;16.75;15.75;12.00
75960;PMS7003;64644;48.914;2.254;2023-10-08T10:25:33;13.00;13.00;8.75
75960;PMS7003;64644;48.914;2.254;2023-10-08T10:30:29;10.25;9.50;7.75
75960;PMS7003;64644;48.914;2.254;2023-10-08T10:32:55;12.25;10.50;8.00
75960;PMS7003;64644;48.914;2.254;2023-10-08T10:35:24;14.50;13.00;8.00
75960;PMS7003;64644;48.914;2.254;2023-10-08T10:37:52;13.00;11.00;8.25
75960;PMS7003;64644;48.914;2.254;2023-10-08T10:40:20;10.75;10.75;7.75
75960;PMS7003;64644;48.914;2.254;2023-10-08T10:42:57;10.25;7.50;5.00
75960;PMS7003;64644;48.914;2.254;2023-10-08T10:45:23;9.25;9.25;7.00
75960;PMS7003;64644;48.914;2.254;2023-10-08T10:48:01;10.75;10.00;8.00
75960;PMS7003;64644;48.914;2.254;2023-10-08T10:50:41;8.25;7.00;6.00
75960;PMS7003;64644;48.914;2.254;2023-10-08T10:53:37;15.00;11.50;7.00
75960;PMS7003;64644;48.914;2.254;2023-10-08T10:56:31;11.50;10.75;7.25
75960;PMS7003;64644;48.914;2.254;2023-10-08T10:59:04;14.00;10.50;6.00
75960;PMS7003;64644;48.914;2.254;2023-10-08T11:01:41;9.00;8.00;6.75
75960;PMS7003;64644;48.914;2.254;2023-10-08T11:04:11;11.50;10.00;7.25
75960;PMS7003;64644;48.914;2.254;2023-10-08T11:06:41;8.00;7.75;5.75
75960;PMS7003;64644;48.914;2.254;2023-10-08T11:09:09;15.75;9.50;6.25
75960;PMS7003;64644;48.914;2.254;2023-10-08T11:11:40;11.00;9.00;7.00
75960;PMS7003;64644;48.914;2.254;2023-10-08T11:14:10;11.00;10.25;6.25
75960;PMS7003;64644;48.914;2.254;2023-10-08T11:16:46;8.25;8.25;6.25
75960;PMS7003;64644;48.914;2.254;2023-10-08T11:19:13;9.00;9.00;6.00
75960;PMS7003;64644;48.914;2.254;2023-10-08T11:21:50;7.00;6.25;5.25
75960;PMS7003;64644;48.914;2.254;2023-10-08T11:24:31;7.25;7.00;5.25
75960;PMS7003;64644;48.914;2.254;2023-10-08T11:27:00;10.75;10.75;8.00
75960;PMS7003;64644;48.914;2.254;2023-10-08T11:29:46;10.25;9.50;6.00
75960;PMS7003;64644;48.914;2.254;2023-10-08T11:32:13;12.00;12.00;8.00
75960;PMS7003;64644;48.914;2.254;2023-10-08T11:34:46;16.00;15.25;9.00
75960;PMS7003;64644;48.914;2.254;2023-10-08T11:37:15;12.50;11.25;9.00
75960;PMS7003;64644;48.914;2.254;2023-10-08T11:39:54;18.50;16.00;11.75
75960;PMS7003;64644;48.914;2.254;2023-10-08T11:42:23;20.75;19.25;17.25
75960;PMS7003;64644;48.914;2.254;2023-10-08T11:45:05;64.25;53.25;45.50
75960;PMS7003;64644;48.914;2.254;2023-10-08T11:47:44;81.25;75.75;66.25
75960;PMS7003;64644;48.914;2.254;2023-10-08T11:50:11;74.25;63.75;50.00
75960;PMS7003;64644;48.914;2.254;2023-10-08T11:52:41;68.25;55.00;38.00
75960;PMS7003;64644;48.914;2.254;2023-10-08T11:55:07;71.25;59.00;44.75
75960;PMS7003;64644;48.914;2.254;2023-10-08T11:57:34;64.75;51.75;36.00
75960;PMS7003;64644;48.914;2.254;2023-10-08T12:00:10;144.00;139.00;102.50
75960;PMS7003;64644;48.914;2.254;2023-10-08T12:02:47;186.50;180.75;139.00
75960;PMS7003;64644;48.914;2.254;2023-10-08T12:05:19;253.25;243.00;179.50
75960;PMS7003;64644;48.914;2.254;2023-10-08T12:07:48;175.00;169.75;127.75
75960;PMS7003;64644;48.914;2.254;2023-10-08T12:10:23;73.50;62.50;48.25
75960;PMS7003;64644;48.914;2.254;2023-10-08T12:12:52;125.50;122.00;92.50
75960;PMS7003;64644;48.914;2.254;2023-10-08T12:15:19;150.00;145.75;106.75
75960;PMS7003;64644;48.914;2.254;2023-10-08T12:17:46;104.25;99.75;68.00
75960;PMS7003;64644;48.914;2.254;2023-10-08T12:20:32;149.00;146.75;103.50
75960;PMS7003;64644;48.914;2.254;2023-10-08T12:22:59;201.25;194.00;145.00
75960;PMS7003;64644;48.914;2.254;2023-10-08T12:25:25;93.75;92.50;70.50
75960;PMS7003;64644;48.914;2.254;2023-10-08T12:27:50;44.50;37.00;26.00
75960;PMS7003;64644;48.914;2.254;2023-10-08T12:30:16;53.75;45.75;31.00
75960;PMS7003;64644;48.914;2.254;2023-10-08T12:32:42;55.00;46.25;32.25
75960;PMS7003;64644;48.914;2.254;2023-10-08T12:35:10;47.00;39.25;28.00
75960;PMS7003;64644;48.914;2.254;2023-10-08T12:37:40;22.25;21.75;17.25
75960;PMS7003;64644;48.914;2.254;2023-10-08T12:40:06;16.50;16.50;11.50
75960;PMS7003;64644;48.914;2.254;2023-10-08T12:42:48;10.50;9.00;7.00
75960;PMS7003;64644;48.914;2.254;2023-10-08T12:45:16;10.50;9.25;6.00
75960;PMS7003;64644;48.914;2.254;2023-10-08T12:47:46;10.25;9.00;7.00
75960;PMS7003;64644;48.914;2.254;2023-10-08T12:50:14;14.25;14.00;10.00
75960;PMS7003;64644;48.914;2.254;2023-10-08T12:52:41;8.50;7.25;6.00
75960;PMS7003;64644;48.914;2.254;2023-10-08T12:55:17;13.25;12.25;9.25
75960;PMS7003;64644;48.914;2.254;2023-10-08T12:57:52;15.00;15.00;10.00
75960;PMS7003;64644;48.914;2.254;2023-10-08T13:00:21;11.00;11.00;9.00
75960;PMS7003;64644;48.914;2.254;2023-10-08T13:02:49;7.75;7.75;7.00
75960;PMS7003;64644;48.914;2.254;2023-10-08T13:05:18;10.75;8.50;6.25
75960;PMS7003;64644;48.914;2.254;2023-10-08T13:07:53;11.50;10.50;7.50
75960;PMS7003;64644;48.914;2.254;2023-10-08T13:10:20;9.50;9.50;8.00
75960;PMS7003;64644;48.914;2.254;2023-10-08T13:12:47;11.75;10.75;7.00
75960;PMS7003;64644;48.914;2.254;2023-10-08T13:15:13;9.25;8.00;6.00
75960;PMS7003;64644;48.914;2.254;2023-10-08T13:17:38;7.00;5.25;5.00
75960;PMS7003;64644;48.914;2.254;2023-10-08T13:20:08;10.50;7.75;6.25
75960;PMS7003;64644;48.914;2.254;2023-10-08T13:22:36;7.25;7.25;5.00
75960;PMS7003;64644;48.914;2.254;2023-10-08T13:25:02;7.00;6.00;5.75
75960;PMS7003;64644;48.914;2.254;2023-10-08T13:27:29;6.50;6.50;5.00
75960;PMS7003;64644;48.914;2.254;2023-10-08T13:29:55;8.00;6.75;6.00
75960;PMS7003;64644;48.914;2.254;2023-10-08T13:32:20;8.75;8.75;6.50
75960;PMS7003;64644;48.914;2.254;2023-10-08T13:34:46;10.00;10.00;7.00
75960;PMS7003;64644;48.914;2.254;2023-10-08T13:37:11;7.25;7.00;5.00
75960;PMS7003;64644;48.914;2.254;2023-10-08T13:39:36;9.25;8.00;6.00
75960;PMS7003;64644;48.914;2.254;2023-10-08T13:42:05;9.25;7.75;6.25
75960;PMS7003;64644;48.914;2.254;2023-10-08T13:44:32;8.00;7.75;5.50
75960;PMS7003;64644;48.914;2.254;2023-10-08T13:46:58;9.25;9.25;6.00
75960;PMS7003;64644;48.914;2.254;2023-10-08T13:49:25;6.75;6.75;6.00
75960;PMS7003;64644;48.914;2.254;2023-10-08T13:51:54;9.00;6.00;5.25
75960;PMS7003;64644;48.914;2.254;2023-10-08T13:54:22;6.25;5.00;4.75
75960;PMS7003;64644;48.914;2.254;2023-10-08T13:56:51;6.00;6.00;4.75
75960;PMS7003;64644;48.914;2.254;2023-10-08T13:59:16;9.50;9.50;7.50
75960;PMS7003;64644;48.914;2.254;2023-10-08T14:01:45;7.00;6.00;5.00
75960;PMS7003;64644;48.914;2.254;2023-10-08T14:04:16;5.75;5.25;4.25
75960;PMS7003;64644;48.914;2.254;2023-10-08T14:06:44;5.75;5.75;4.75
75960;PMS7003;64644;48.914;2.254;2023-10-08T14:09:16;7.00;6.50;5.00
75960;PMS7003;64644;48.914;2.254;2023-10-08T14:11:47;10.50;8.75;6.00
75960;PMS7003;64644;48.914;2.254;2023-10-08T14:14:15;7.50;5.75;5.00
75960;PMS7003;64644;48.914;2.254;2023-10-08T14:16:42;8.00;7.50;5.50
75960;PMS7003;64644;48.914;2.254;2023-10-08T14:19:11;8.25;8.25;5.00
75960;PMS7003;64644;48.914;2.254;2023-10-08T14:21:38;5.50;5.50;4.75